Time;durP1;ratioP1;P1;durP2;ratioP2;P2;SDS_P1;SDS_P2;PMS_P1;PMS_P2;Temp;Humidity;BMP_temperature;BMP_pressure;BME280_temperature;BME280_humidity;BME280_pressure;Samples;Min_cycle;Max_cycle;Signal;HPM_P1;HPM_P2
2022/01/11 00:01:30;;;;;;;137.40;60.73;;;-1.90;99.90;;;;;;5166866;28;20434;-49
2022/01/11 00:04:00;;;;;;;156.50;62.07;;;-1.90;99.90;;;;;;5148504;28;20185;-48
2022/01/11 00:06:38;;;;;;;138.73;61.63;;;-1.90;99.90;;;;;;5167633;28;20478;-49
2022/01/11 00:09:20;;;;;;;149.23;65.27;;;-2.00;99.90;;;;;;5148649;28;20207;-48
2022/01/11 00:11:51;;;;;;;155.00;65.77;;;-2.10;99.90;;;;;;5164965;28;20432;-50
2022/01/11 00:14:22;;;;;;;146.63;65.90;;;-2.10;99.90;;;;;;5165446;28;20483;-49
2022/01/11 00:16:52;;;;;;;157.43;67.73;;;-2.20;99.90;;;;;;5148240;28;20209;-49
2022/01/11 00:19:23;;;;;;;168.37;72.03;;;-2.20;99.90;;;;;;5165563;28;20358;-50
2022/01/11 00:21:53;;;;;;;160.97;68.30;;;-2.20;99.90;;;;;;5165276;28;20181;-50
2022/01/11 00:24:28;;;;;;;184.73;92.43;;;-2.30;99.90;;;;;;5166408;28;20723;-49
2022/01/11 00:27:02;;;;;;;156.80;67.10;;;-2.30;99.90;;;;;;5165115;28;20185;-51
2022/01/11 00:29:35;;;;;;;143.37;64.87;;;-2.30;99.90;;;;;;5163856;28;20461;-51
2022/01/11 00:32:10;;;;;;;161.97;69.53;;;-2.30;99.90;;;;;;5147751;28;20435;-49
2022/01/11 00:34:48;;;;;;;163.07;65.43;;;-2.30;99.90;;;;;;5147704;28;20432;-48
2022/01/11 00:37:20;;;;;;;150.73;68.30;;;-2.30;99.90;;;;;;5165112;28;20444;-49
2022/01/11 00:39:51;;;;;;;168.87;67.60;;;-2.30;99.90;;;;;;5163099;28;20444;-50
2022/01/11 00:42:22;;;;;;;164.23;70.90;;;-2.30;99.90;;;;;;5163548;28;20426;-48
2022/01/11 00:44:53;;;;;;;155.30;70.77;;;-2.30;99.90;;;;;;5164513;28;20661;-48
2022/01/11 00:47:23;;;;;;;176.90;72.73;;;-2.30;99.90;;;;;;5163466;28;20527;-51
2022/01/11 00:49:55;;;;;;;181.77;75.90;;;-2.40;99.90;;;;;;5164475;28;20666;-49
2022/01/11 00:52:25;;;;;;;192.47;77.87;;;-2.50;99.90;;;;;;5164593;28;20208;-49
2022/01/11 00:54:56;;;;;;;184.07;79.80;;;-2.50;99.90;;;;;;5164766;28;20772;-49
2022/01/11 00:57:30;;;;;;;191.77;78.40;;;-2.50;99.90;;;;;;5146996;28;20539;-51
2022/01/11 01:00:02;;;;;;;202.43;78.93;;;-2.40;99.90;;;;;;5162198;28;20206;-49
2022/01/11 01:02:32;;;;;;;169.60;76.83;;;-2.50;99.90;;;;;;5163966;28;20818;-49
2022/01/11 01:05:04;;;;;;;184.37;78.53;;;-2.50;99.90;;;;;;5163256;28;20437;-50
2022/01/11 01:07:35;;;;;;;210.67;84.70;;;-2.60;99.90;;;;;;5165076;28;20201;-48
2022/01/11 01:10:13;;;;;;;193.57;82.80;;;-2.70;99.90;;;;;;5163397;28;20801;-49
2022/01/11 01:12:44;;;;;;;210.73;89.70;;;-2.70;99.90;;;;;;5148690;28;20519;-48
2022/01/11 01:15:19;;;;;;;189.53;81.10;;;-2.70;99.90;;;;;;5164471;28;20445;-49
2022/01/11 01:17:50;;;;;;;203.87;82.43;;;-2.70;99.90;;;;;;5156291;28;20185;-50
2022/01/11 01:20:21;;;;;;;219.23;81.67;;;-2.70;99.90;;;;;;5162912;28;20472;-49
2022/01/11 01:22:52;;;;;;;210.97;82.77;;;-2.60;99.90;;;;;;5131584;28;20438;-49
2022/01/11 01:25:23;;;;;;;208.00;83.00;;;-2.60;99.90;;;;;;5146379;28;20437;-48
2022/01/11 01:27:54;;;;;;;195.20;76.67;;;-2.60;99.90;;;;;;5164766;28;20190;-50
2022/01/11 01:30:24;;;;;;;195.80;77.50;;;-2.60;99.90;;;;;;5163913;28;20444;-49
2022/01/11 01:32:55;;;;;;;202.27;76.63;;;-2.50;99.90;;;;;;5164238;28;20210;-49
2022/01/11 01:35:31;;;;;;;187.87;78.00;;;-2.50;99.90;;;;;;5163358;28;20249;-50
2022/01/11 01:38:01;;;;;;;191.17;80.27;;;-2.60;99.90;;;;;;5163829;28;20192;-48
2022/01/11 01:40:38;;;;;;;218.07;82.87;;;-2.70;99.90;;;;;;5146584;28;20445;-51
2022/01/11 01:43:11;;;;;;;198.60;80.47;;;-2.70;99.90;;;;;;5162846;28;20211;-50
2022/01/11 01:45:44;;;;;;;197.40;78.07;;;-2.70;99.90;;;;;;5163113;28;20433;-49
2022/01/11 01:48:15;;;;;;;207.73;79.20;;;-2.70;99.90;;;;;;5162395;28;20453;-50
2022/01/11 01:50:48;;;;;;;191.77;79.63;;;-2.70;99.90;;;;;;5161714;28;20436;-49
2022/01/11 01:53:19;;;;;;;213.40;77.10;;;-2.70;99.90;;;;;;5162870;28;20534;-50
2022/01/11 01:55:50;;;;;;;185.13;76.37;;;-2.70;99.90;;;;;;5163452;28;20438;-49
2022/01/11 01:58:21;;;;;;;196.97;74.37;;;-2.60;99.90;;;;;;5161412;28;22016;-50
2022/01/11 02:00:55;;;;;;;187.37;69.37;;;-2.60;99.90;;;;;;5163949;28;20192;-49
2022/01/11 02:03:26;;;;;;;178.23;65.70;;;-2.60;99.90;;;;;;5163981;28;20440;-49
2022/01/11 02:05:58;;;;;;;171.70;68.37;;;-2.70;99.90;;;;;;5122368;28;20459;-51
2022/01/11 02:08:28;;;;;;;190.90;72.53;;;-2.70;99.90;;;;;;5146199;28;20829;-49
2022/01/11 02:10:59;;;;;;;189.80;73.67;;;-2.70;99.90;;;;;;5144476;28;20440;-50
2022/01/11 02:13:30;;;;;;;219.10;75.23;;;-2.80;99.90;;;;;;5146235;28;20761;-50
2022/01/11 02:16:03;;;;;;;218.43;75.97;;;-2.80;99.90;;;;;;5163872;28;20181;-49
2022/01/11 02:18:36;;;;;;;186.57;74.30;;;-2.80;99.90;;;;;;5163175;28;20217;-49
2022/01/11 02:21:07;;;;;;;204.90;75.53;;;-2.80;99.90;;;;;;5163744;28;21000;-50
2022/01/11 02:23:38;;;;;;;204.87;73.30;;;-2.70;99.90;;;;;;5163101;28;20473;-48
2022/01/11 02:26:09;;;;;;;204.80;71.50;;;-2.60;99.90;;;;;;5144735;28;20190;-50
2022/01/11 02:28:39;;;;;;;177.50;65.43;;;-2.60;99.90;;;;;;5146091;28;20531;-50
2022/01/11 02:31:13;;;;;;;197.80;66.50;;;-2.60;99.90;;;;;;5164027;28;20182;-49
2022/01/11 02:33:50;;;;;;;172.67;59.70;;;-2.60;99.90;;;;;;5162748;28;20217;-49
2022/01/11 02:36:24;;;;;;;178.10;61.27;;;-2.60;99.90;;;;;;5163432;28;20449;-51
2022/01/11 02:38:55;;;;;;;182.33;65.40;;;-2.70;99.90;;;;;;5163097;28;20536;-50
2022/01/11 02:41:28;;;;;;;208.23;66.80;;;-2.70;99.90;;;;;;5163121;28;20532;-49
2022/01/11 02:43:59;;;;;;;196.87;65.97;;;-2.80;99.90;;;;;;5146510;28;20442;-48
2022/01/11 02:46:30;;;;;;;204.50;64.77;;;-2.80;99.90;;;;;;5163502;28;20551;-49
2022/01/11 02:49:00;;;;;;;198.93;64.77;;;-2.80;99.90;;;;;;5162949;28;20457;-49
2022/01/11 02:51:31;;;;;;;194.70;63.90;;;-2.80;99.90;;;;;;5161994;28;20295;-48
2022/01/11 02:54:04;;;;;;;205.73;66.10;;;-2.80;99.90;;;;;;5162767;28;20216;-50
2022/01/11 02:56:35;;;;;;;198.60;67.40;;;-2.80;99.90;;;;;;5163131;28;20223;-48
2022/01/11 02:59:06;;;;;;;215.63;72.20;;;-2.80;99.90;;;;;;5161869;28;21412;-50
2022/01/11 03:01:36;;;;;;;239.00;71.10;;;-2.80;99.90;;;;;;5148266;28;20530;-48
2022/01/11 03:04:07;;;;;;;202.10;68.23;;;-2.80;99.90;;;;;;5167297;28;20189;-49
2022/01/11 03:06:38;;;;;;;202.10;66.50;;;-2.80;99.90;;;;;;5149786;28;20191;-49
2022/01/11 03:09:08;;;;;;;216.73;63.47;;;-2.70;99.90;;;;;;5149327;28;20204;-48
2022/01/11 03:11:40;;;;;;;187.93;62.37;;;-2.80;99.90;;;;;;5166657;28;20194;-49
2022/01/11 03:14:11;;;;;;;201.33;61.37;;;-2.70;99.90;;;;;;5166081;28;21055;-49
2022/01/11 03:16:41;;;;;;;170.33;58.50;;;-2.70;99.90;;;;;;5167161;28;20417;-49
2022/01/11 03:19:12;;;;;;;183.70;61.20;;;-2.70;99.90;;;;;;5147057;28;20221;-50
2022/01/11 03:21:42;;;;;;;165.53;54.10;;;-2.60;99.90;;;;;;5149366;28;20173;-50
2022/01/11 03:24:13;;;;;;;190.23;55.97;;;-2.60;99.90;;;;;;5166654;28;20204;-48
2022/01/11 03:26:43;;;;;;;161.90;52.37;;;-2.60;99.90;;;;;;5167411;28;20216;-48
2022/01/11 03:29:14;;;;;;;174.17;53.47;;;-2.70;99.90;;;;;;5166340;28;20203;-50
2022/01/11 03:31:44;;;;;;;165.43;51.03;;;-2.70;99.90;;;;;;5151308;28;20192;-49
2022/01/11 03:34:19;;;;;;;167.53;54.07;;;-2.80;99.90;;;;;;5167156;28;20210;-49
2022/01/11 03:36:49;;;;;;;165.67;55.20;;;-2.70;99.90;;;;;;5167899;28;20538;-49
2022/01/11 03:39:20;;;;;;;181.63;55.70;;;-2.70;99.90;;;;;;5165932;28;20463;-48
2022/01/11 03:41:50;;;;;;;177.07;57.00;;;-2.80;99.90;;;;;;5149782;28;20182;-48
2022/01/11 03:44:21;;;;;;;168.13;54.30;;;-2.80;99.90;;;;;;5167099;28;20673;-49
2022/01/11 03:46:51;;;;;;;164.70;57.03;;;-2.80;99.90;;;;;;5166310;28;20192;-50
2022/01/11 03:49:22;;;;;;;165.87;55.43;;;-2.70;99.90;;;;;;5148714;28;20210;-47
2022/01/11 03:51:53;;;;;;;167.67;50.30;;;-2.70;99.90;;;;;;5149068;28;20200;-48
2022/01/11 03:54:27;;;;;;;182.80;55.17;;;-2.70;99.90;;;;;;5166699;28;20348;-48
2022/01/11 03:56:57;;;;;;;163.80;52.63;;;-2.70;99.90;;;;;;5165514;28;20184;-49
2022/01/11 03:59:28;;;;;;;155.00;49.13;;;-2.70;99.90;;;;;;5160795;28;21002;-49
2022/01/11 04:01:58;;;;;;;167.37;51.10;;;-2.70;99.90;;;;;;5149211;28;20204;-55
2022/01/11 04:04:29;;;;;;;178.53;50.73;;;-2.70;99.90;;;;;;5166202;28;20197;-49
2022/01/11 04:07:02;;;;;;;177.00;50.47;;;-2.70;99.90;;;;;;5166037;28;20191;-50
2022/01/11 04:09:33;;;;;;;177.07;52.07;;;-2.70;99.90;;;;;;5152504;28;20202;-48
2022/01/11 04:12:04;;;;;;;139.90;47.77;;;-2.70;99.90;;;;;;5152477;28;20433;-50
2022/01/11 04:14:35;;;;;;;160.77;53.03;;;-2.70;99.90;;;;;;5137538;28;20746;-50
2022/01/11 04:17:06;;;;;;;152.20;50.17;;;-2.60;99.90;;;;;;5171835;28;20417;-51
2022/01/11 04:19:36;;;;;;;145.73;48.23;;;-2.60;99.90;;;;;;5172318;28;20482;-49
2022/01/11 04:22:07;;;;;;;140.80;45.63;;;-2.50;99.90;;;;;;5171208;28;20621;-50
2022/01/11 04:24:38;;;;;;;151.10;46.30;;;-2.60;99.90;;;;;;5170751;28;20194;-49
2022/01/11 04:27:08;;;;;;;148.10;47.13;;;-2.60;99.90;;;;;;5169339;28;20193;-49
2022/01/11 04:29:39;;;;;;;151.00;48.20;;;-2.60;99.90;;;;;;5170763;28;20236;-49
2022/01/11 04:32:09;;;;;;;153.23;49.37;;;-2.60;99.90;;;;;;5171710;28;20649;-50
2022/01/11 04:34:43;;;;;;;135.73;47.20;;;-2.60;99.90;;;;;;5171054;28;20240;-49
2022/01/11 04:37:13;;;;;;;126.13;44.27;;;-2.60;99.90;;;;;;5169556;28;20265;-49
2022/01/11 04:39:44;;;;;;;145.57;46.83;;;-2.60;99.90;;;;;;5165305;28;20448;-49
2022/01/11 04:42:14;;;;;;;144.93;45.93;;;-2.50;99.90;;;;;;5166224;28;20200;-50
2022/01/11 04:44:47;;;;;;;139.30;49.77;;;-2.50;99.90;;;;;;5167026;28;20265;-49
2022/01/11 04:47:18;;;;;;;129.77;46.33;;;-2.50;99.90;;;;;;5166197;28;20701;-49
2022/01/11 04:49:48;;;;;;;131.23;41.47;;;-2.50;99.90;;;;;;5166986;28;20569;-49
2022/01/11 04:52:19;;;;;;;125.97;43.23;;;-2.40;99.90;;;;;;5164506;28;20213;-49
2022/01/11 04:54:49;;;;;;;116.73;44.03;;;-2.40;99.90;;;;;;5166300;28;20199;-51
2022/01/11 04:57:20;;;;;;;132.77;43.10;;;-2.20;99.90;;;;;;5148957;28;20180;-49
2022/01/11 04:59:50;;;;;;;150.60;44.33;;;-2.20;99.90;;;;;;5165027;28;20206;-49
2022/01/11 05:02:21;;;;;;;133.33;42.23;;;-2.20;99.90;;;;;;5164702;28;20178;-49
2022/01/11 05:04:51;;;;;;;138.90;45.10;;;-2.30;99.90;;;;;;5165879;28;20222;-49
2022/01/11 05:07:22;;;;;;;123.07;41.10;;;-2.30;99.90;;;;;;5146869;28;20175;-49
2022/01/11 05:09:53;;;;;;;125.13;42.40;;;-2.20;99.90;;;;;;5147218;28;20205;-48
2022/01/11 05:12:24;;;;;;;136.70;43.50;;;-2.30;99.90;;;;;;5147032;28;20337;-49
2022/01/11 05:14:55;;;;;;;131.77;41.43;;;-2.20;99.90;;;;;;5164851;28;20515;-49
2022/01/11 05:17:25;;;;;;;146.63;45.30;;;-2.20;99.90;;;;;;5148265;28;20559;-49
2022/01/11 05:19:56;;;;;;;113.27;41.43;;;-2.20;99.90;;;;;;5180289;23;20493;-52
2022/01/11 05:22:26;;;;;;;142.57;41.90;;;-2.30;99.90;;;;;;5183270;28;20191;-50
2022/01/11 05:24:57;;;;;;;126.40;45.13;;;-2.20;99.90;;;;;;5167659;28;20196;-52
2022/01/11 05:27:27;;;;;;;126.10;43.40;;;-2.20;99.90;;;;;;5167086;28;20184;-51
2022/01/11 05:29:58;;;;;;;124.10;40.23;;;-2.10;99.90;;;;;;5170844;28;20203;-51
2022/01/11 05:32:28;;;;;;;134.87;41.70;;;-2.10;99.90;;;;;;5146248;28;20220;-51
2022/01/11 05:34:59;;;;;;;132.63;45.80;;;-1.90;99.90;;;;;;5163538;28;20287;-52
2022/01/11 05:37:30;;;;;;;122.70;40.07;;;-1.90;99.90;;;;;;5143898;28;20585;-52
2022/01/11 05:40:00;;;;;;;114.73;39.30;;;-1.90;99.90;;;;;;5163483;28;20287;-52
2022/01/11 05:42:31;;;;;;;100.87;39.10;;;-2.00;99.90;;;;;;5145937;28;20234;-52
2022/01/11 05:45:03;;;;;;;123.50;39.70;;;-2.00;99.90;;;;;;5163258;28;20187;-51
2022/01/11 05:47:34;;;;;;;119.27;39.80;;;-2.10;99.90;;;;;;5162999;28;20235;-52
2022/01/11 05:50:07;;;;;;;118.03;40.67;;;-2.20;99.90;;;;;;5163771;28;20449;-52
2022/01/11 05:52:39;;;;;;;137.57;44.20;;;-2.20;99.90;;;;;;5146459;28;20197;-53
2022/01/11 05:55:11;;;;;;;129.10;41.70;;;-2.20;99.90;;;;;;5164200;28;20418;-52
2022/01/11 05:57:42;;;;;;;128.97;42.70;;;-2.10;99.90;;;;;;5162737;28;20825;-52
2022/01/11 06:00:16;;;;;;;127.27;42.33;;;-2.00;99.90;;;;;;5162359;28;20529;-52
2022/01/11 06:02:52;;;;;;;127.80;42.10;;;-1.90;99.90;;;;;;5163098;28;20443;-52
2022/01/11 06:05:24;;;;;;;108.07;38.60;;;-1.90;99.90;;;;;;5163868;28;20435;-52
2022/01/11 06:07:57;;;;;;;114.63;39.60;;;-1.90;99.90;;;;;;5163397;28;20436;-51
2022/01/11 06:10:28;;;;;;;111.27;38.60;;;-1.80;99.90;;;;;;5163678;28;20444;-51
2022/01/11 06:12:58;;;;;;;121.37;40.20;;;-1.80;99.90;;;;;;5146813;28;20547;-53
2022/01/11 06:15:30;;;;;;;97.60;37.67;;;-1.60;99.90;;;;;;5162729;28;20653;-52
2022/01/11 06:18:01;;;;;;;96.10;37.03;;;-1.70;99.90;;;;;;5163527;28;20212;-53
2022/01/11 06:20:32;;;;;;;133.43;40.20;;;-1.70;99.90;;;;;;5162890;28;20463;-52
2022/01/11 06:23:03;;;;;;;109.93;39.23;;;-1.70;99.90;;;;;;5157002;28;20245;-53
2022/01/11 06:25:33;;;;;;;99.47;38.47;;;-1.70;99.90;;;;;;5158475;28;20193;-53
2022/01/11 06:28:04;;;;;;;104.27;37.60;;;-1.80;99.90;;;;;;5160719;28;20189;-52
2022/01/11 06:30:35;;;;;;;120.77;38.80;;;-1.90;99.90;;;;;;5140606;28;20235;-53
2022/01/11 06:33:05;;;;;;;109.97;39.13;;;-2.00;99.90;;;;;;5158922;28;20271;-52
2022/01/11 06:35:36;;;;;;;132.13;40.83;;;-2.10;99.90;;;;;;5157133;28;20192;-53
2022/01/11 06:38:07;;;;;;;128.23;40.40;;;-2.10;99.90;;;;;;5150932;28;20183;-51
2022/01/11 06:40:37;;;;;;;118.37;42.20;;;-2.20;99.90;;;;;;5168216;28;20264;-51
2022/01/11 06:43:08;;;;;;;127.63;41.27;;;-2.30;99.90;;;;;;5150166;28;20650;-51
2022/01/11 06:45:39;;;;;;;135.77;43.50;;;-2.30;99.90;;;;;;5149632;28;20640;-53
2022/01/11 06:48:10;;;;;;;128.03;44.87;;;-2.30;99.90;;;;;;5167669;28;20642;-52
2022/01/11 06:50:40;;;;;;;122.77;42.43;;;-2.30;99.90;;;;;;5167809;28;20475;-51
2022/01/11 06:53:11;;;;;;;121.70;39.77;;;-2.40;99.90;;;;;;5165927;28;20236;-51
2022/01/11 06:55:41;;;;;;;134.90;39.77;;;-2.40;99.90;;;;;;5169932;28;20258;-52
2022/01/11 06:58:13;;;;;;;119.40;39.00;;;-2.30;99.90;;;;;;5166467;28;20390;-53
2022/01/11 07:00:44;;;;;;;124.90;42.83;;;-2.30;99.90;;;;;;5164708;28;20589;-50
2022/01/11 07:03:18;;;;;;;132.73;43.53;;;-2.30;99.90;;;;;;5167153;28;20507;-52
2022/01/11 07:05:49;;;;;;;129.53;40.07;;;-2.30;99.90;;;;;;5162751;28;20550;-50
2022/01/11 07:08:19;;;;;;;110.40;39.07;;;-2.30;99.90;;;;;;5149027;28;20454;-52
2022/01/11 07:10:50;;;;;;;117.90;40.60;;;-2.30;99.90;;;;;;5135387;28;20184;-52
2022/01/11 07:13:21;;;;;;;114.30;40.63;;;-2.30;99.90;;;;;;5145827;28;20213;-53
2022/01/11 07:15:51;;;;;;;116.80;38.20;;;-2.30;99.90;;;;;;5166566;28;20437;-52
2022/01/11 07:18:22;;;;;;;116.77;41.43;;;-2.30;99.90;;;;;;5163128;28;20185;-53
2022/01/11 07:20:52;;;;;;;116.10;39.60;;;-2.20;99.90;;;;;;5166993;28;20211;-52
2022/01/11 07:23:23;;;;;;;106.73;37.13;;;-2.20;99.90;;;;;;5165301;28;20197;-53
2022/01/11 07:25:53;;;;;;;119.03;38.77;;;-2.10;99.90;;;;;;5169760;28;20191;-53
2022/01/11 07:28:24;;;;;;;107.53;35.30;;;-2.00;99.90;;;;;;5151550;28;20192;-52
2022/01/11 07:30:54;;;;;;;101.27;36.10;;;-2.00;99.90;;;;;;5149469;28;20191;-52
2022/01/11 07:33:25;;;;;;;109.50;37.00;;;-2.00;99.90;;;;;;5169363;28;20211;-52
2022/01/11 07:35:56;;;;;;;101.70;35.07;;;-2.10;99.90;;;;;;5168944;28;20261;-52
2022/01/11 07:38:26;;;;;;;105.83;36.70;;;-2.20;99.90;;;;;;5167262;28;20246;-52
2022/01/11 07:40:57;;;;;;;119.17;36.70;;;-2.20;99.90;;;;;;5150971;28;20181;-52
2022/01/11 07:43:30;;;;;;;103.27;35.17;;;-2.10;99.90;;;;;;5168632;28;20195;-51
2022/01/11 07:46:01;;;;;;;95.80;35.67;;;-2.00;99.90;;;;;;5169462;28;20600;-52
2022/01/11 07:48:31;;;;;;;98.57;36.33;;;-2.10;99.90;;;;;;5147722;28;20541;-52
2022/01/11 07:51:02;;;;;;;92.53;34.50;;;-2.00;99.90;;;;;;5163220;28;20272;-53
2022/01/11 07:53:33;;;;;;;91.17;35.03;;;-1.90;99.90;;;;;;5161650;28;20295;-52
2022/01/11 07:56:04;;;;;;;75.30;31.47;;;-1.80;99.90;;;;;;5162930;28;20539;-52
2022/01/11 07:58:35;;;;;;;76.47;30.47;;;-1.60;99.90;;;;;;5149558;28;20206;-54
2022/01/11 08:01:05;;;;;;;87.90;30.93;;;-1.50;99.90;;;;;;5165068;28;20212;-53
2022/01/11 08:03:36;;;;;;;83.93;31.70;;;-1.40;99.90;;;;;;5168755;28;20440;-52
2022/01/11 08:06:06;;;;;;;67.17;30.00;;;-1.50;99.90;;;;;;5167347;28;20181;-52
2022/01/11 08:08:39;;;;;;;72.40;29.67;;;-1.60;99.90;;;;;;5167795;28;20201;-51
2022/01/11 08:11:10;;;;;;;67.37;30.27;;;-1.80;99.90;;;;;;5150187;28;20189;-52
2022/01/11 08:13:42;;;;;;;75.77;30.77;;;-1.90;99.90;;;;;;5165322;28;20467;-51
2022/01/11 08:16:12;;;;;;;72.37;32.30;;;-2.00;99.90;;;;;;5148061;28;20436;-51
2022/01/11 08:18:46;;;;;;;72.47;29.07;;;-2.00;99.90;;;;;;5164606;28;20546;-53
2022/01/11 08:21:16;;;;;;;75.67;29.53;;;-2.10;99.90;;;;;;5148449;28;20213;-50
2022/01/11 08:23:50;;;;;;;72.80;28.93;;;-2.10;99.90;;;;;;5164656;28;20901;-53
2022/01/11 08:26:20;;;;;;;80.10;31.00;;;-2.10;99.90;;;;;;5165888;28;20201;-52
2022/01/11 08:28:51;;;;;;;82.60;30.13;;;-2.10;99.90;;;;;;5146283;28;21944;-52
2022/01/11 08:31:21;;;;;;;84.23;31.80;;;-2.10;99.90;;;;;;5166787;28;20194;-52
2022/01/11 08:33:52;;;;;;;99.63;32.17;;;-2.10;99.90;;;;;;5161384;28;20237;-51
2022/01/11 08:36:23;;;;;;;80.77;32.83;;;-2.10;99.90;;;;;;5164191;28;20185;-53
2022/01/11 08:38:53;;;;;;;92.87;31.93;;;-2.20;99.90;;;;;;5162248;28;20297;-52
2022/01/11 08:41:24;;;;;;;80.27;29.93;;;-2.10;99.90;;;;;;5145989;28;20168;-52
2022/01/11 08:43:54;;;;;;;81.67;30.30;;;-2.10;99.90;;;;;;5165798;28;20178;-52
2022/01/11 08:46:25;;;;;;;82.30;30.37;;;-2.00;99.90;;;;;;5161864;28;20181;-52
2022/01/11 08:48:55;;;;;;;71.87;28.13;;;-1.90;99.90;;;;;;5163057;28;20221;-51
2022/01/11 08:51:26;;;;;;;82.73;31.60;;;-1.90;99.90;;;;;;5164110;28;20189;-53
2022/01/11 08:53:57;;;;;;;64.70;27.77;;;-1.90;99.90;;;;;;5162161;28;20657;-51
2022/01/11 08:56:27;;;;;;;79.60;29.17;;;-1.70;99.90;;;;;;5146375;28;20657;-52
2022/01/11 08:58:59;;;;;;;70.23;29.83;;;-1.70;99.90;;;;;;5162835;28;20284;-51
2022/01/11 09:01:34;;;;;;;68.97;28.10;;;-1.60;99.90;;;;;;5145920;28;20259;-53
2022/01/11 09:04:04;;;;;;;85.17;30.27;;;-1.50;99.90;;;;;;5163151;28;20785;-51
2022/01/11 09:06:35;;;;;;;73.13;29.13;;;-1.50;99.90;;;;;;5163203;28;20432;-50
2022/01/11 09:09:06;;;;;;;69.10;30.43;;;-1.50;99.90;;;;;;5151784;28;20292;-52
2022/01/11 09:11:36;;;;;;;66.43;29.83;;;-1.50;99.90;;;;;;5147773;28;20436;-53
2022/01/11 09:14:07;;;;;;;71.97;29.83;;;-1.50;99.90;;;;;;5163414;28;20201;-51
2022/01/11 09:16:38;;;;;;;74.20;30.47;;;-1.40;99.90;;;;;;5165046;28;20181;-52
2022/01/11 09:19:08;;;;;;;70.77;28.40;;;-1.50;99.90;;;;;;5161801;28;20322;-54
2022/01/11 09:21:39;;;;;;;72.60;31.30;;;-1.50;99.90;;;;;;5144967;28;20314;-52
2022/01/11 09:24:11;;;;;;;70.63;29.97;;;-1.50;99.90;;;;;;5145459;28;20184;-52
2022/01/11 09:26:42;;;;;;;70.87;30.80;;;-1.60;99.90;;;;;;5143087;28;20189;-51
2022/01/11 09:29:13;;;;;;;70.30;30.07;;;-1.60;99.90;;;;;;5144493;28;20451;-50
2022/01/11 09:31:43;;;;;;;76.17;31.00;;;-1.60;99.90;;;;;;5161058;28;20189;-51
2022/01/11 09:34:14;;;;;;;81.70;30.67;;;-1.70;99.90;;;;;;5158946;28;20305;-53
2022/01/11 09:36:45;;;;;;;72.23;29.40;;;-1.70;99.90;;;;;;5159081;28;20226;-52
2022/01/11 09:39:15;;;;;;;75.27;29.40;;;-1.80;99.90;;;;;;5161332;28;20197;-52
2022/01/11 09:41:46;;;;;;;72.47;30.30;;;-1.80;99.90;;;;;;5163496;28;20805;-52
2022/01/11 09:44:18;;;;;;;76.80;30.27;;;-1.70;99.90;;;;;;5164444;28;20181;-52
2022/01/11 09:46:48;;;;;;;72.90;30.60;;;-1.70;99.90;;;;;;5163127;28;20198;-52
2022/01/11 09:49:19;;;;;;;74.43;30.13;;;-1.60;99.90;;;;;;5144847;28;20456;-54
2022/01/11 09:51:51;;;;;;;63.60;30.40;;;-1.50;99.90;;;;;;5162888;28;20194;-52
2022/01/11 09:54:22;;;;;;;78.70;32.63;;;-1.30;99.90;;;;;;5164013;28;20226;-54
2022/01/11 09:56:52;;;;;;;64.13;29.60;;;-1.20;99.90;;;;;;5163222;28;20443;-51
2022/01/11 09:59:23;;;;;;;70.80;28.80;;;-1.20;99.90;;;;;;5160682;28;20245;-52
2022/01/11 10:01:54;;;;;;;66.30;28.60;;;-1.10;99.90;;;;;;5163057;28;20184;-53
2022/01/11 10:04:31;;;;;;;71.17;28.67;;;-1.10;99.90;;;;;;5162890;28;20634;-51
2022/01/11 10:07:06;;;;;;;63.23;29.50;;;-1.10;99.90;;;;;;5146576;28;20518;-53
2022/01/11 10:09:48;;;;;;;70.53;28.17;;;-1.10;99.90;;;;;;5161672;28;20530;-50
2022/01/11 10:12:19;;;;;;;59.60;27.53;;;-1.10;99.90;;;;;;5142833;28;20466;-51
2022/01/11 10:14:55;;;;;;;71.33;29.40;;;-1.10;99.90;;;;;;5162782;28;20431;-52
2022/01/11 10:17:37;;;;;;;58.67;26.97;;;-1.00;99.90;;;;;;5162602;28;20267;-51
2022/01/11 10:20:10;;;;;;;58.70;26.63;;;-0.90;99.90;;;;;;5161461;28;20532;-51
2022/01/11 10:22:48;;;;;;;62.83;26.10;;;-0.90;99.90;;;;;;5127078;28;20428;-52
2022/01/11 10:25:20;;;;;;;67.67;28.67;;;-1.00;99.90;;;;;;5163711;28;20424;-53
2022/01/11 10:28:08;;;;;;;57.47;28.10;;;-1.10;99.90;;;;;;5162716;28;21044;-52
2022/01/11 10:30:40;;;;;;;60.77;26.67;;;-1.20;99.90;;;;;;5160348;28;20479;-53
2022/01/11 10:33:10;;;;;;;65.90;28.17;;;-1.10;99.90;;;;;;5163402;28;20467;-53
2022/01/11 10:35:44;;;;;;;65.53;29.77;;;-1.10;99.90;;;;;;5162323;28;20833;-52
2022/01/11 10:38:25;;;;;;;60.87;28.53;;;-1.00;99.90;;;;;;5162471;28;20204;-53
2022/01/11 10:40:56;;;;;;;65.20;28.87;;;-1.10;99.90;;;;;;5146788;28;20490;-53
2022/01/11 10:43:28;;;;;;;68.90;30.40;;;-1.00;99.90;;;;;;5146205;28;20527;-51
2022/01/11 10:45:59;;;;;;;66.27;28.07;;;-0.90;99.90;;;;;;5156890;28;20185;-51
2022/01/11 10:48:37;;;;;;;60.33;29.17;;;-0.70;99.90;;;;;;5162245;28;20813;-52
2022/01/11 10:51:14;;;;;;;63.33;26.40;;;-0.50;99.90;;;;;;5143506;28;20677;-52
2022/01/11 10:53:49;;;;;;;58.60;27.30;;;-0.40;99.90;;;;;;5147560;28;20471;-53
2022/01/11 10:56:37;;;;;;;63.30;27.93;;;-0.30;99.90;;;;;;5147413;28;20424;-52
2022/01/11 10:59:10;;;;;;;54.07;26.70;;;-0.20;99.90;;;;;;5164297;28;20864;-51
2022/01/11 11:01:43;;;;;;;51.03;24.83;;;-0.40;99.90;;;;;;5163691;28;20442;-52
2022/01/11 11:04:30;;;;;;;55.90;26.93;;;-0.50;99.90;;;;;;5143860;28;20448;-50
2022/01/11 11:07:15;;;;;;;60.50;28.17;;;-0.50;99.90;;;;;;5160895;28;20535;-52
2022/01/11 11:09:47;;;;;;;54.00;24.20;;;-0.50;99.90;;;;;;5163115;28;20460;-52
2022/01/11 11:12:21;;;;;;;58.27;26.47;;;-0.60;99.90;;;;;;5145779;28;20543;-53
2022/01/11 11:14:54;;;;;;;57.67;25.30;;;-0.60;99.90;;;;;;5145948;28;20784;-52
2022/01/11 11:17:31;;;;;;;45.33;24.33;;;-0.50;99.90;;;;;;5163064;28;20784;-53
2022/01/11 11:20:06;;;;;;;63.17;26.47;;;-0.30;99.90;;;;;;5162748;28;20905;-52
2022/01/11 11:22:36;;;;;;;58.93;25.50;;;-0.20;99.90;;;;;;5130432;28;20448;-52
2022/01/11 11:25:07;;;;;;;52.80;26.97;;;-0.10;99.90;;;;;;5159893;28;20504;-51
2022/01/11 11:27:38;;;;;;;49.63;24.03;;;0.00;99.90;;;;;;5159292;28;20628;-52
2022/01/11 11:30:09;;;;;;;53.13;25.40;;;0.20;99.90;;;;;;5164294;28;20467;-52
2022/01/11 11:32:41;;;;;;;57.20;23.37;;;0.20;99.90;;;;;;5148300;28;20310;-54
2022/01/11 11:35:13;;;;;;;49.93;23.77;;;0.00;99.90;;;;;;5150540;28;20897;-51
2022/01/11 11:37:46;;;;;;;49.53;22.90;;;-0.10;99.90;;;;;;5164813;28;20436;-52
2022/01/11 11:40:21;;;;;;;53.17;23.03;;;-0.20;99.90;;;;;;5146604;28;20464;-51
2022/01/11 11:42:55;;;;;;;52.50;23.23;;;-0.40;99.90;;;;;;5143990;28;20585;-53
2022/01/11 11:45:32;;;;;;;52.50;24.30;;;-0.60;99.90;;;;;;5148704;28;20527;-52
2022/01/11 11:48:10;;;;;;;58.17;24.70;;;-0.50;99.90;;;;;;5143955;28;20451;-52
2022/01/11 11:50:53;;;;;;;53.30;25.20;;;-0.60;99.90;;;;;;5158029;28;20490;-53
2022/01/11 11:53:30;;;;;;;49.33;23.53;;;-0.70;99.90;;;;;;5164842;28;20471;-52
2022/01/11 11:56:22;;;;;;;53.70;24.83;;;-0.60;99.90;;;;;;5162133;28;20458;-53
2022/01/11 11:58:57;;;;;;;64.23;27.33;;;-0.70;99.90;;;;;;5164668;28;20455;-52
2022/01/11 12:01:45;;;;;;;57.87;24.50;;;-0.60;99.90;;;;;;5165463;28;20815;-52
2022/01/11 12:04:27;;;;;;;56.93;23.33;;;-0.50;99.90;;;;;;5146105;28;20436;-51
2022/01/11 12:07:27;;;;;;;53.57;24.33;;;-0.40;99.90;;;;;;5167199;28;20849;-52
2022/01/11 12:09:58;;;;;;;64.97;27.20;;;-0.20;99.90;;;;;;5164975;28;20502;-53
2022/01/11 12:12:43;;;;;;;50.70;26.40;;;-0.10;99.90;;;;;;5166493;28;20437;-51
2022/01/11 12:15:31;;;;;;;52.47;24.60;;;0.00;99.90;;;;;;5149200;28;20444;-52
2022/01/11 12:18:08;;;;;;;55.07;27.03;;;0.00;99.90;;;;;;5164133;28;20892;-52
2022/01/11 12:20:39;;;;;;;55.17;24.13;;;-0.10;99.90;;;;;;5159366;28;20475;-51
2022/01/11 12:23:13;;;;;;;52.17;24.37;;;-0.10;99.90;;;;;;5165450;28;20513;-51
2022/01/11 12:25:43;;;;;;;63.30;27.30;;;-0.10;99.90;;;;;;5147095;28;20318;-51
2022/01/11 12:28:20;;;;;;;62.80;26.50;;;0.00;99.90;;;;;;5162724;28;20449;-50
2022/01/11 12:30:55;;;;;;;60.37;25.43;;;-0.10;99.90;;;;;;5161182;23;20366;-50
2022/01/11 12:33:28;;;;;;;56.53;24.90;;;-0.10;99.90;;;;;;5161092;28;20484;-49
2022/01/11 12:36:04;;;;;;;54.43;27.93;;;-0.20;99.90;;;;;;5158393;28;22307;-51
2022/01/11 12:38:37;;;;;;;52.60;24.83;;;-0.20;99.90;;;;;;5159334;28;20432;-47
2022/01/11 12:41:31;;;;;;;51.23;25.57;;;-0.10;99.90;;;;;;5139777;28;20498;-48
2022/01/11 12:44:23;;;;;;;63.00;27.10;;;-0.10;99.90;;;;;;5143739;28;20533;-48
2022/01/11 12:46:58;;;;;;;53.40;25.20;;;0.00;99.90;;;;;;5146893;28;20971;-47